Time;durP1;ratioP1;P1;durP2;ratioP2;P2;SDS_P1;SDS_P2;PMS_P1;PMS_P2;Temp;Humidity;BMP_temperature;BMP_pressure;BME280_temperature;BME280_humidity;BME280_pressure;Samples;Min_cycle;Max_cycle;Signal;HPM_P1;HPM_P2
2021/09/19 05:38:45;;;;;;;12.00;2.78;;;11.20;99.90;;;;;;4143610;27;20440;-77
2021/09/19 05:41:13;;;;;;;5.15;2.42;;;11.30;99.90;;;;;;4890449;29;20119;-77
2021/09/19 05:43:39;;;;;;;5.43;2.35;;;11.30;99.90;;;;;;4886031;29;20025;-77
2021/09/19 05:46:05;;;;;;;6.78;2.80;;;11.30;99.90;;;;;;4880872;29;20037;-77
2021/09/19 05:48:30;;;;;;;5.25;2.00;;;11.30;99.90;;;;;;4883810;29;20421;-77
2021/09/19 05:50:56;;;;;;;6.75;2.38;;;11.30;99.90;;;;;;4873122;29;20071;-76
2021/09/19 05:53:22;;;;;;;2.22;1.85;;;11.30;99.90;;;;;;4880659;29;20036;-75
2021/09/19 05:55:47;;;;;;;6.75;2.13;;;11.40;99.90;;;;;;4887584;29;20043;-75
2021/09/19 05:58:13;;;;;;;5.40;2.03;;;11.40;99.90;;;;;;4875435;29;20060;-74
2021/09/19 06:00:39;;;;;;;5.80;2.95;;;11.40;99.90;;;;;;4885433;29;20029;-76
2021/09/19 06:03:05;;;;;;;3.92;1.92;;;11.50;99.90;;;;;;4877338;29;20093;-75
2021/09/19 06:05:31;;;;;;;12.40;2.53;;;11.50;99.90;;;;;;4872198;29;20026;-77
2021/09/19 06:07:56;;;;;;;6.50;2.30;;;11.50;99.90;;;;;;4871413;29;20040;-77
2021/09/19 06:10:23;;;;;;;2.85;2.10;;;11.50;99.90;;;;;;4872060;29;20081;-76
2021/09/19 06:12:49;;;;;;;8.77;2.55;;;11.50;99.90;;;;;;4856078;29;20042;-76
2021/09/19 06:15:14;;;;;;;13.73;2.47;;;11.60;99.90;;;;;;4876525;29;20048;-76
2021/09/19 06:17:40;;;;;;;6.13;2.40;;;11.60;99.90;;;;;;4879537;29;20072;-75
2021/09/19 06:20:07;;;;;;;8.30;2.88;;;11.60;99.90;;;;;;4868226;29;20049;-76
2021/09/19 06:22:32;;;;;;;6.00;2.38;;;11.60;99.90;;;;;;4860482;29;20485;-75
2021/09/19 06:24:58;;;;;;;4.45;2.38;;;11.70;99.90;;;;;;4880968;29;20036;-75
2021/09/19 06:27:24;;;;;;;9.30;2.20;;;11.70;99.90;;;;;;4872677;29;20129;-75
2021/09/19 06:29:49;;;;;;;5.78;2.60;;;11.70;99.90;;;;;;4886069;29;20508;-75
2021/09/19 06:32:18;;;;;;;6.88;2.75;;;11.70;99.90;;;;;;4881387;29;20605;-76
2021/09/19 06:34:44;;;;;;;5.97;2.00;;;11.80;99.90;;;;;;4863238;29;20038;-75
2021/09/19 06:37:10;;;;;;;6.60;2.63;;;11.80;99.90;;;;;;4884306;29;20033;-74
2021/09/19 06:39:35;;;;;;;5.70;2.28;;;11.90;99.90;;;;;;4880044;29;20033;-76
2021/09/19 06:42:01;;;;;;;6.30;1.73;;;11.90;99.90;;;;;;4890119;29;20033;-76
2021/09/19 06:44:31;;;;;;;9.65;2.55;;;12.00;99.90;;;;;;4890003;29;20037;-77
2021/09/19 06:46:57;;;;;;;4.80;1.83;;;12.00;99.90;;;;;;4889898;29;20053;-77
2021/09/19 06:49:25;;;;;;;3.35;2.00;;;12.10;99.90;;;;;;4890504;29;20033;-76
2021/09/19 06:51:51;;;;;;;4.63;1.85;;;12.10;99.90;;;;;;4885505;29;20128;-77
2021/09/19 06:54:16;;;;;;;5.93;2.30;;;12.20;99.90;;;;;;4880131;29;20061;-77
2021/09/19 06:56:45;;;;;;;14.82;2.45;;;12.20;99.90;;;;;;4876605;29;20397;-77
2021/09/19 06:59:11;;;;;;;7.20;2.67;;;12.20;99.90;;;;;;4887717;29;20029;-77
2021/09/19 07:01:37;;;;;;;5.57;2.08;;;12.30;99.90;;;;;;4887683;29;20045;-77
2021/09/19 07:04:02;;;;;;;6.57;2.65;;;12.30;99.90;;;;;;4888531;29;20033;-77
2021/09/19 07:06:30;;;;;;;5.70;2.45;;;12.40;99.90;;;;;;4890108;29;20478;-78
2021/09/19 07:08:57;;;;;;;6.50;1.92;;;12.40;99.90;;;;;;4889859;29;20033;-77
2021/09/19 07:11:24;;;;;;;10.95;2.92;;;12.40;99.90;;;;;;4880942;29;20125;-77
2021/09/19 07:13:53;;;;;;;4.75;2.25;;;12.50;99.90;;;;;;4889210;29;20111;-77
2021/09/19 07:16:19;;;;;;;5.65;1.90;;;12.60;99.90;;;;;;4883955;29;20047;-76
2021/09/19 07:18:44;;;;;;;5.07;2.40;;;12.70;99.90;;;;;;4878057;29;20426;-76
2021/09/19 07:21:10;;;;;;;5.28;2.13;;;12.70;99.90;;;;;;4889595;29;20051;-76
2021/09/19 07:23:36;;;;;;;14.07;2.35;;;12.80;99.90;;;;;;4889444;29;20057;-75
2021/09/19 07:26:03;;;;;;;3.95;1.90;;;12.80;99.90;;;;;;4891166;29;20029;-76
2021/09/19 07:28:29;;;;;;;5.30;2.22;;;12.80;99.90;;;;;;4889498;29;20423;-77
2021/09/19 07:30:55;;;;;;;3.38;1.88;;;13.00;99.90;;;;;;4889370;29;20037;-76
2021/09/19 07:33:25;;;;;;;3.75;1.75;;;13.00;99.90;;;;;;4888791;29;20048;-76
2021/09/19 07:35:52;;;;;;;4.10;2.15;;;13.10;99.90;;;;;;4891462;29;20025;-75
2021/09/19 07:38:19;;;;;;;4.28;1.48;;;13.10;99.90;;;;;;4890140;29;20065;-75
2021/09/19 07:40:48;;;;;;;4.10;1.80;;;13.20;99.90;;;;;;4890930;29;20075;-76
2021/09/19 07:43:14;;;;;;;6.72;2.03;;;13.20;99.90;;;;;;4890831;29;20033;-76
2021/09/19 07:45:40;;;;;;;8.13;2.38;;;13.20;99.90;;;;;;4881364;29;20541;-76
2021/09/19 07:48:11;;;;;;;4.78;2.15;;;13.30;99.90;;;;;;4874474;29;20044;-76
2021/09/19 07:50:37;;;;;;;5.65;2.47;;;13.30;99.90;;;;;;4870540;29;20131;-74
2021/09/19 07:53:03;;;;;;;5.95;1.95;;;13.40;99.90;;;;;;4871358;29;20036;-76
2021/09/19 07:55:31;;;;;;;4.78;1.90;;;13.40;99.90;;;;;;4879960;29;20043;-75
2021/09/19 07:57:57;;;;;;;2.72;1.65;;;13.50;99.90;;;;;;4880624;29;20471;-75
2021/09/19 08:00:23;;;;;;;3.25;1.60;;;13.50;99.90;;;;;;4871742;29;20049;-76
2021/09/19 08:02:53;;;;;;;6.75;2.42;;;13.60;99.90;;;;;;4880211;29;20033;-75
2021/09/19 08:05:22;;;;;;;5.78;2.28;;;13.50;99.90;;;;;;4887152;29;20037;-75
2021/09/19 08:07:48;;;;;;;3.70;1.70;;;13.70;99.90;;;;;;4875616;29;20060;-77
2021/09/19 08:10:14;;;;;;;5.07;2.33;;;13.70;99.90;;;;;;4869441;29;20053;-75
2021/09/19 08:12:43;;;;;;;4.43;1.75;;;13.80;99.90;;;;;;4875974;29;20033;-75
2021/09/19 08:15:10;;;;;;;8.60;1.58;;;13.80;99.90;;;;;;4883107;29;20084;-75
2021/09/19 08:17:36;;;;;;;4.28;2.30;;;13.80;99.90;;;;;;4866943;29;20021;-75
2021/09/19 08:20:02;;;;;;;5.97;2.40;;;13.90;99.90;;;;;;4876042;29;20104;-76
2021/09/19 08:22:28;;;;;;;3.70;1.60;;;13.90;99.90;;;;;;4875102;29;20037;-76
2021/09/19 08:24:56;;;;;;;3.72;1.85;;;14.00;99.90;;;;;;4870811;29;20038;-77
2021/09/19 08:27:23;;;;;;;4.00;1.63;;;14.00;99.90;;;;;;4872376;29;20038;-76
2021/09/19 08:29:52;;;;;;;9.00;1.92;;;14.00;99.90;;;;;;4888393;29;20044;-78
2021/09/19 08:32:19;;;;;;;3.70;1.55;;;14.10;99.90;;;;;;4881733;29;20065;-77
2021/09/19 08:34:44;;;;;;;5.05;1.95;;;14.10;99.90;;;;;;4882107;29;20491;-76
2021/09/19 08:37:10;;;;;;;3.50;1.80;;;14.10;99.90;;;;;;4882376;29;20059;-75
2021/09/19 08:39:35;;;;;;;1.92;1.52;;;14.10;99.90;;;;;;4880990;29;20041;-76
2021/09/19 08:42:02;;;;;;;5.25;2.17;;;14.30;99.90;;;;;;4871161;29;20439;-77
2021/09/19 08:44:28;;;;;;;1.77;1.27;;;14.20;99.90;;;;;;4885510;29;20469;-76
2021/09/19 08:46:54;;;;;;;4.63;1.75;;;14.30;99.90;;;;;;4873210;29;20033;-79
2021/09/19 08:49:19;;;;;;;3.83;1.80;;;14.30;99.90;;;;;;4875359;29;20045;-78
2021/09/19 08:51:45;;;;;;;5.72;1.90;;;14.40;99.90;;;;;;4874873;29;20093;-75
2021/09/19 08:54:11;;;;;;;5.97;1.95;;;14.30;99.90;;;;;;4874690;29;20040;-78
2021/09/19 08:56:37;;;;;;;2.97;1.50;;;14.40;99.90;;;;;;4876345;29;20037;-77
2021/09/19 08:59:03;;;;;;;7.95;2.63;;;14.40;99.90;;;;;;4877234;29;20062;-79
2021/09/19 09:01:30;;;;;;;4.85;2.00;;;14.40;99.90;;;;;;4884628;29;20037;-78
2021/09/19 09:11:43;;;;;;;4.05;1.70;;;14.70;99.90;;;;;;5002800;23;20065;-76
2021/09/19 09:14:18;;;;;;;4.57;1.55;;;14.80;99.90;;;;;;4892524;29;20097;-77
2021/09/19 09:16:48;;;;;;;2.67;1.60;;;14.80;99.90;;;;;;4870007;29;20131;-78
2021/09/19 09:19:14;;;;;;;6.03;1.85;;;14.80;99.90;;;;;;4886086;29;20124;-76
2021/09/19 09:21:41;;;;;;;3.80;1.70;;;14.80;99.90;;;;;;4885889;29;20136;-77
2021/09/19 09:24:08;;;;;;;3.47;1.92;;;14.90;99.90;;;;;;4875041;29;20065;-77
2021/09/19 09:26:40;;;;;;;3.85;1.45;;;14.90;99.90;;;;;;4874346;29;20029;-81
2021/09/19 09:29:14;;;;;;;4.40;1.75;;;15.00;99.90;;;;;;4874510;29;20037;-77
2021/09/19 09:31:49;;;;;;;3.65;1.77;;;15.00;99.90;;;;;;4879080;29;20033;-78
2021/09/19 09:34:17;;;;;;;4.88;2.00;;;15.10;99.90;;;;;;4892614;29;20041;-79
2021/09/19 09:37:05;;;;;;;2.33;1.33;;;15.10;99.90;;;;;;4879564;29;20033;-78
2021/09/19 09:39:38;;;;;;;3.92;1.63;;;15.20;99.90;;;;;;4890760;29;20040;-77
2021/09/19 09:42:18;;;;;;;1.55;1.05;;;15.10;99.90;;;;;;4876281;29;20065;-77
2021/09/19 09:44:54;;;;;;;2.28;1.30;;;15.20;99.90;;;;;;4889525;29;20108;-76
2021/09/19 09:47:28;;;;;;;2.03;1.02;;;15.30;99.90;;;;;;4872813;29;20038;-80
2021/09/19 09:49:57;;;;;;;3.90;1.30;;;15.30;99.90;;;;;;4888006;29;20037;-79
2021/09/19 09:52:25;;;;;;;3.08;1.50;;;15.40;99.90;;;;;;4891122;29;20033;-77
2021/09/19 09:55:03;;;;;;;4.55;1.38;;;15.40;99.90;;;;;;4875245;29;20041;-76
2021/09/19 09:57:46;;;;;;;7.05;1.88;;;15.40;99.90;;;;;;4872746;29;20065;-81
2021/09/19 10:00:15;;;;;;;3.17;1.55;;;15.50;99.90;;;;;;4875624;29;20120;-75
2021/09/19 10:02:44;;;;;;;1.35;0.88;;;15.60;99.90;;;;;;4871360;29;20497;-75
2021/09/19 10:05:12;;;;;;;2.78;1.40;;;15.50;99.90;;;;;;4864320;29;20057;-77
2021/09/19 10:07:40;;;;;;;3.33;1.70;;;15.50;99.90;;;;;;4856156;29;20058;-77
2021/09/19 10:10:11;;;;;;;4.22;1.23;;;15.60;99.90;;;;;;4873482;29;20065;-78
2021/09/19 10:12:38;;;;;;;3.95;1.95;;;15.60;99.90;;;;;;4873273;29;20500;-77
2021/09/19 10:15:05;;;;;;;4.40;2.08;;;15.70;99.90;;;;;;4873213;29;20034;-78
2021/09/19 10:17:32;;;;;;;4.28;1.63;;;15.70;99.90;;;;;;4873730;29;20025;-76
2021/09/19 10:19:59;;;;;;;9.50;2.17;;;15.80;99.90;;;;;;4884088;29;20036;-77
2021/09/19 10:22:28;;;;;;;5.38;2.70;;;15.80;99.90;;;;;;4891169;29;20065;-78
2021/09/19 10:24:55;;;;;;;6.00;2.47;;;15.90;99.90;;;;;;4883996;29;20036;-78
2021/09/19 10:27:28;;;;;;;5.00;2.05;;;15.90;99.90;;;;;;4891821;29;20036;-78
2021/09/19 10:29:59;;;;;;;3.08;1.30;;;16.00;99.90;;;;;;4873902;29;20033;-78
2021/09/19 10:32:42;;;;;;;5.85;1.25;;;16.00;99.90;;;;;;4891847;29;20080;-77
2021/09/19 10:35:15;;;;;;;3.17;0.98;;;16.00;99.90;;;;;;4898590;29;20041;-77
2021/09/19 10:38:00;;;;;;;1.55;0.98;;;16.00;99.90;;;;;;4879092;29;20033;-76
2021/09/19 10:40:39;;;;;;;3.85;1.48;;;16.00;99.90;;;;;;4875706;29;20045;-76
2021/09/19 10:43:22;;;;;;;2.78;0.95;;;16.00;99.90;;;;;;4861337;29;20069;-76
2021/09/19 10:45:52;;;;;;;2.10;1.10;;;16.10;99.90;;;;;;4880773;29;20045;-78
2021/09/19 10:48:29;;;;;;;3.63;1.35;;;16.10;99.90;;;;;;4884383;29;20036;-75
2021/09/19 10:51:07;;;;;;;3.55;1.08;;;16.20;99.90;;;;;;4873055;29;20165;-77
2021/09/19 10:53:47;;;;;;;2.30;1.10;;;16.10;99.90;;;;;;4873492;29;20037;-76
2021/09/19 10:56:13;;;;;;;2.40;1.20;;;16.20;99.90;;;;;;4892843;29;20029;-76
2021/09/19 10:58:46;;;;;;;2.45;1.35;;;16.20;99.90;;;;;;4892985;29;20029;-77
2021/09/19 11:01:12;;;;;;;3.58;1.38;;;16.30;99.90;;;;;;4876950;29;20048;-77
2021/09/19 11:03:45;;;;;;;2.70;1.10;;;16.40;99.90;;;;;;4861266;29;20056;-73
2021/09/19 11:06:33;;;;;;;2.38;1.05;;;16.40;99.90;;;;;;4883410;29;20034;-76
2021/09/19 11:09:35;;;;;;;3.55;1.20;;;16.20;99.90;;;;;;4878774;29;20030;-78
2021/09/19 11:29:10;;;;;;;1.40;1.00;;;16.00;99.90;;;;;;3227103;24;20080;-74
2021/09/19 11:31:40;;;;;;;0.85;0.60;;;16.00;99.90;;;;;;4873541;29;20037;-71
2021/09/19 11:34:09;;;;;;;2.30;1.17;;;16.10;99.90;;;;;;4879235;29;20341;-71
2021/09/19 11:36:41;;;;;;;4.82;1.20;;;16.10;99.90;;;;;;4878839;29;20029;-70
2021/09/19 11:39:07;;;;;;;5.85;0.82;;;16.10;99.90;;;;;;4877988;29;20060;-71
2021/09/19 11:41:32;;;;;;;2.17;0.95;;;16.10;99.90;;;;;;4883882;29;20069;-71
2021/09/19 11:44:00;;;;;;;2.03;1.02;;;16.10;99.90;;;;;;4877524;29;20094;-72
2021/09/19 11:46:26;;;;;;;1.85;0.70;;;16.10;99.90;;;;;;4890327;29;20094;-72
2021/09/19 11:48:53;;;;;;;1.13;0.57;;;16.10;99.90;;;;;;4890330;29;20025;-72
2021/09/19 11:51:19;;;;;;;3.90;1.30;;;16.10;99.90;;;;;;4883673;29;20454;-72
2021/09/19 11:53:53;;;;;;;1.52;0.90;;;16.00;99.90;;;;;;4883378;29;20025;-71
2021/09/19 11:56:21;;;;;;;2.40;1.17;;;16.00;99.90;;;;;;4882359;29;20061;-73
2021/09/19 11:58:49;;;;;;;2.30;0.80;;;16.00;99.90;;;;;;4874149;29;20049;-72
2021/09/19 12:01:15;;;;;;;1.45;0.80;;;16.00;99.90;;;;;;4880127;29;20033;-72
2021/09/19 12:03:41;;;;;;;1.65;1.00;;;16.00;99.90;;;;;;4880545;29;20044;-72
2021/09/19 12:06:09;;;;;;;2.40;1.30;;;15.90;99.90;;;;;;4890097;29;20033;-74
2021/09/19 12:08:36;;;;;;;1.92;0.85;;;16.00;99.90;;;;;;4889044;29;20029;-73
2021/09/19 12:11:03;;;;;;;2.15;1.25;;;16.00;99.90;;;;;;4883010;29;20029;-72
2021/09/19 12:13:35;;;;;;;2.42;1.10;;;16.00;99.90;;;;;;4880155;29;20060;-72
2021/09/19 12:16:11;;;;;;;3.00;1.08;;;16.10;99.90;;;;;;4877462;29;20549;-73
2021/09/19 12:18:42;;;;;;;2.10;1.00;;;16.20;99.90;;;;;;4876559;29;20025;-73
2021/09/19 12:21:12;;;;;;;2.45;1.08;;;16.20;99.90;;;;;;4885871;29;20504;-73
2021/09/19 12:23:42;;;;;;;2.13;1.27;;;16.30;99.90;;;;;;4886992;29;20044;-72
2021/09/19 12:26:12;;;;;;;2.85;1.30;;;16.30;99.90;;;;;;4876899;29;20040;-73
2021/09/19 12:28:40;;;;;;;1.65;0.90;;;16.40;99.90;;;;;;4875391;29;20097;-72
2021/09/19 12:31:06;;;;;;;3.97;0.93;;;16.30;99.90;;;;;;4858962;29;20065;-72
2021/09/19 12:33:32;;;;;;;1.83;0.95;;;16.30;99.90;;;;;;4875277;29;20036;-73
2021/09/19 12:35:58;;;;;;;1.40;0.90;;;16.20;99.90;;;;;;4858906;29;20034;-73
2021/09/19 12:38:25;;;;;;;5.57;1.17;;;16.10;99.90;;;;;;4875522;29;20062;-72
2021/09/19 12:41:01;;;;;;;1.42;1.02;;;16.20;99.90;;;;;;4874895;29;20040;-73
2021/09/19 12:43:29;;;;;;;1.42;1.00;;;16.10;99.90;;;;;;4875571;29;20025;-73
2021/09/19 12:45:55;;;;;;;1.88;1.08;;;15.90;99.90;;;;;;4875036;29;20360;-72
2021/09/19 12:48:30;;;;;;;3.58;1.30;;;16.00;99.90;;;;;;4875976;29;20125;-73
2021/09/19 12:50:59;;;;;;;5.05;1.10;;;16.00;99.90;;;;;;4885096;29;20040;-72
2021/09/19 12:53:29;;;;;;;9.02;1.63;;;16.00;99.90;;;;;;4874710;29;20066;-72
2021/09/19 12:55:57;;;;;;;1.85;1.10;;;16.10;99.90;;;;;;4885459;29;20080;-72
2021/09/19 12:58:25;;;;;;;2.40;1.17;;;16.10;99.90;;;;;;4874557;29;20078;-72
2021/09/19 13:00:51;;;;;;;3.00;1.30;;;16.10;99.90;;;;;;4880720;29;20034;-72
2021/09/19 13:03:22;;;;;;;7.85;1.20;;;16.00;99.90;;;;;;4883446;29;20037;-74
2021/09/19 13:05:48;;;;;;;2.25;1.13;;;16.00;99.90;;;;;;4883981;29;20792;-71
2021/09/19 13:08:14;;;;;;;3.90;1.65;;;16.10;99.90;;;;;;4886602;29;20045;-72
2021/09/19 13:10:40;;;;;;;1.88;1.25;;;16.20;99.90;;;;;;4884773;29;20054;-73
2021/09/19 13:13:05;;;;;;;2.85;1.10;;;16.20;99.90;;;;;;4876309;29;20033;-74
2021/09/19 13:15:32;;;;;;;2.72;1.10;;;16.30;99.90;;;;;;4881955;29;20053;-71
2021/09/19 13:17:58;;;;;;;1.27;0.80;;;16.30;99.90;;;;;;4881667;29;20037;-73
2021/09/19 13:20:25;;;;;;;6.18;1.83;;;16.30;99.90;;;;;;4872118;29;20378;-73
2021/09/19 13:22:50;;;;;;;2.63;1.38;;;16.30;99.90;;;;;;4890383;29;20092;-71
2021/09/19 13:25:16;;;;;;;1.73;1.20;;;16.40;99.90;;;;;;4892495;29;20037;-72
2021/09/19 13:27:42;;;;;;;3.20;1.15;;;16.50;99.90;;;;;;4892866;29;20025;-72
2021/09/19 13:30:08;;;;;;;5.40;1.35;;;16.50;99.90;;;;;;4892817;29;20425;-72
2021/09/19 13:32:33;;;;;;;2.63;1.20;;;16.70;99.90;;;;;;4892256;29;20044;-71
2021/09/19 13:34:59;;;;;;;1.52;1.05;;;16.80;99.90;;;;;;4893109;29;20033;-72
2021/09/19 13:37:25;;;;;;;1.48;0.80;;;16.90;99.90;;;;;;4893605;29;20059;-71
2021/09/19 13:39:50;;;;;;;1.95;1.13;;;17.00;99.90;;;;;;4892935;29;20093;-73
2021/09/19 13:42:16;;;;;;;2.50;1.40;;;16.90;99.90;;;;;;4892732;29;20097;-72
2021/09/19 13:44:42;;;;;;;4.28;1.00;;;16.90;99.90;;;;;;4892585;29;20037;-72
2021/09/19 13:47:10;;;;;;;2.20;1.15;;;16.90;99.90;;;;;;4891683;29;20041;-72
2021/09/19 13:49:36;;;;;;;3.75;1.33;;;16.80;99.90;;;;;;4891938;29;20033;-72
2021/09/19 13:52:02;;;;;;;2.35;1.35;;;16.70;99.90;;;;;;4891757;29;20036;-74
2021/09/19 13:54:28;;;;;;;3.83;1.23;;;16.60;99.90;;;;;;4891392;29;20025;-73
2021/09/19 13:56:54;;;;;;;1.13;0.85;;;16.60;99.90;;;;;;4879377;29;20029;-72
2021/09/19 13:59:22;;;;;;;3.97;1.33;;;16.50;99.90;;;;;;4881673;29;20029;-74
2021/09/19 14:01:52;;;;;;;2.33;0.95;;;16.60;99.90;;;;;;4891964;29;20474;-73
2021/09/19 14:04:21;;;;;;;2.03;1.10;;;16.60;99.90;;;;;;4882777;29;20077;-74
2021/09/19 14:06:47;;;;;;;2.28;1.02;;;16.60;99.90;;;;;;4878296;29;20089;-72
2021/09/19 14:09:13;;;;;;;4.38;1.75;;;16.70;99.90;;;;;;4877472;29;20029;-70
2021/09/19 14:11:39;;;;;;;3.65;1.17;;;16.80;99.90;;;;;;4878528;29;20108;-71
2021/09/19 14:14:06;;;;;;;1.77;0.80;;;17.00;99.90;;;;;;4878984;29;20033;-71
2021/09/19 14:16:33;;;;;;;1.73;1.05;;;16.90;99.90;;;;;;4880045;29;20112;-70
2021/09/19 14:18:59;;;;;;;1.48;1.00;;;17.00;99.90;;;;;;4885620;29;20029;-72
2021/09/19 14:21:25;;;;;;;4.50;1.17;;;17.00;99.90;;;;;;4878564;29;20074;-73
2021/09/19 14:23:51;;;;;;;5.30;1.13;;;16.80;99.90;;;;;;4883135;29;20041;-72
2021/09/19 14:26:18;;;;;;;1.92;1.17;;;16.80;99.90;;;;;;4884323;29;20037;-71
2021/09/19 14:28:45;;;;;;;3.58;1.33;;;16.70;99.90;;;;;;4875549;29;20049;-70
2021/09/19 14:31:12;;;;;;;3.90;1.50;;;16.60;99.90;;;;;;4877917;29;20116;-74
2021/09/19 14:33:38;;;;;;;8.02;1.25;;;16.50;99.90;;;;;;4882698;29;20053;-72
2021/09/19 14:36:03;;;;;;;3.00;1.40;;;16.50;99.90;;;;;;4874645;29;20041;-73
2021/09/19 14:38:29;;;;;;;2.28;1.15;;;16.50;99.90;;;;;;4863892;29;20029;-73
2021/09/19 14:40:58;;;;;;;5.22;1.42;;;16.30;99.90;;;;;;4880924;29;20140;-73
2021/09/19 14:43:24;;;;;;;2.05;1.17;;;16.30;99.90;;;;;;4873194;29;20115;-74
2021/09/19 14:45:50;;;;;;;2.65;1.40;;;16.20;99.90;;;;;;4879778;29;20440;-72
2021/09/19 14:48:15;;;;;;;2.15;1.00;;;16.20;99.90;;;;;;4883175;29;20040;-72
2021/09/19 14:50:41;;;;;;;2.67;1.00;;;16.20;99.90;;;;;;4875731;29;20038;-73
2021/09/19 14:53:06;;;;;;;2.28;1.10;;;16.20;99.90;;;;;;4872686;29;20033;-72
2021/09/19 14:55:32;;;;;;;3.25;1.20;;;16.20;99.90;;;;;;4871113;29;20041;-72
2021/09/19 14:57:58;;;;;;;1.77;0.80;;;16.20;99.90;;;;;;4873637;29;20025;-73
2021/09/19 15:00:25;;;;;;;3.15;1.00;;;16.20;99.90;;;;;;4889782;29;20044;-73
2021/09/19 15:02:50;;;;;;;3.10;1.52;;;16.30;99.90;;;;;;4891109;29;20036;-73
2021/09/19 15:05:16;;;;;;;2.90;1.00;;;16.30;99.90;;;;;;4890211;29;20021;-72
2021/09/19 15:07:42;;;;;;;1.63;0.80;;;16.30;99.90;;;;;;4880206;29;20242;-72
2021/09/19 15:10:09;;;;;;;1.38;0.85;;;16.30;99.90;;;;;;4889729;29;20116;-71
2021/09/19 15:12:37;;;;;;;1.63;0.75;;;16.20;99.90;;;;;;4883814;29;20060;-72
2021/09/19 15:15:04;;;;;;;3.60;1.15;;;16.10;99.90;;;;;;4873939;29;20029;-72
2021/09/19 15:17:31;;;;;;;2.50;1.02;;;16.10;99.90;;;;;;4872808;29;20089;-71
2021/09/19 15:19:57;;;;;;;3.13;1.20;;;16.10;99.90;;;;;;4872180;29;20042;-72
2021/09/19 15:22:23;;;;;;;1.05;0.77;;;16.10;99.90;;;;;;4872782;29;20049;-72
2021/09/19 15:24:49;;;;;;;2.30;1.30;;;16.00;99.90;;;;;;4872770;29;20034;-72
2021/09/19 15:27:15;;;;;;;2.88;1.10;;;16.00;99.90;;;;;;4872474;29;20053;-71
2021/09/19 15:29:40;;;;;;;6.30;1.08;;;16.00;99.90;;;;;;4872087;29;20525;-71
2021/09/19 15:32:06;;;;;;;2.17;1.17;;;16.00;99.90;;;;;;4872306;29;20032;-72
2021/09/19 15:34:32;;;;;;;1.55;1.00;;;15.90;99.90;;;;;;4872167;29;20091;-72
2021/09/19 15:36:58;;;;;;;6.72;1.08;;;15.90;99.90;;;;;;4873416;29;20041;-71
2021/09/19 15:39:25;;;;;;;2.13;1.15;;;15.90;99.90;;;;;;4878757;29;20116;-72
2021/09/19 15:41:50;;;;;;;1.63;0.90;;;16.60;99.90;;;;;;4876040;29;20037;-71
2021/09/19 15:44:16;;;;;;;1.45;0.85;;;17.70;99.90;;;;;;4877201;29;20474;-73
2021/09/19 15:46:42;;;;;;;2.75;1.15;;;18.20;99.90;;;;;;4884169;29;20033;-72
2021/09/19 15:49:07;;;;;;;5.82;1.30;;;18.30;99.90;;;;;;4878313;29;20041;-72
2021/09/19 15:51:33;;;;;;;2.25;1.02;;;18.30;99.90;;;;;;4883057;29;20033;-71
2021/09/19 15:53:58;;;;;;;1.30;0.82;;;18.30;99.90;;;;;;4878856;29;20102;-72
2021/09/19 15:56:24;;;;;;;4.00;1.60;;;18.10;99.90;;;;;;4871610;29;20026;-72
2021/09/19 15:58:50;;;;;;;4.57;1.02;;;18.00;99.90;;;;;;4878961;29;20048;-72
2021/09/19 16:01:17;;;;;;;1.70;0.80;;;17.70;99.90;;;;;;4879164;29;20105;-72
2021/09/19 16:03:42;;;;;;;3.08;1.20;;;17.40;99.90;;;;;;4876366;29;20044;-71
2021/09/19 16:06:09;;;;;;;1.98;1.05;;;17.20;99.90;;;;;;4879328;29;20069;-72
2021/09/19 16:08:42;;;;;;;2.78;1.00;;;16.90;99.90;;;;;;4873019;29;20537;-72
2021/09/19 16:11:08;;;;;;;1.95;1.05;;;16.70;99.90;;;;;;4871983;29;20041;-71
2021/09/19 16:13:33;;;;;;;1.58;1.20;;;16.50;99.90;;;;;;4878197;29;20113;-72
2021/09/19 16:15:59;;;;;;;3.90;1.05;;;16.30;99.90;;;;;;4889739;29;20026;-72
2021/09/19 16:18:25;;;;;;;2.08;1.00;;;16.20;99.90;;;;;;4890170;29;20557;-71
2021/09/19 16:20:51;;;;;;;1.92;1.00;;;16.00;99.90;;;;;;4889901;29;20447;-71
2021/09/19 16:23:16;;;;;;;3.67;1.38;;;15.90;99.90;;;;;;4889984;29;20044;-71
2021/09/19 16:25:44;;;;;;;3.55;1.27;;;15.80;99.90;;;;;;4881233;29;20562;-72
2021/09/19 16:28:10;;;;;;;1.63;1.00;;;15.80;99.90;;;;;;4882491;29;20398;-71
2021/09/19 16:30:39;;;;;;;10.75;1.08;;;15.70;99.90;;;;;;4884526;29;20065;-71
2021/09/19 16:33:06;;;;;;;2.42;1.02;;;15.70;99.90;;;;;;4882938;29;20045;-72
2021/09/19 16:35:32;;;;;;;1.95;0.88;;;15.60;99.90;;;;;;4878824;29;20029;-71
2021/09/19 16:37:58;;;;;;;7.10;1.08;;;15.50;99.90;;;;;;4879430;29;20096;-71
2021/09/19 16:40:25;;;;;;;2.67;1.08;;;15.30;99.90;;;;;;4866883;29;20076;-71
2021/09/19 16:42:52;;;;;;;1.42;0.85;;;15.40;99.90;;;;;;4884218;29;20025;-71
2021/09/19 16:45:21;;;;;;;1.88;1.08;;;15.40;99.90;;;;;;4880243;29;20107;-70
2021/09/19 16:47:49;;;;;;;2.03;1.13;;;15.30;99.90;;;;;;4881758;29;20708;-71
2021/09/19 16:50:15;;;;;;;2.53;1.33;;;15.30;99.90;;;;;;4879850;29;20127;-72
2021/09/19 16:52:41;;;;;;;1.95;1.00;;;15.20;99.90;;;;;;4880023;29;20045;-71
2021/09/19 16:55:11;;;;;;;3.33;1.30;;;15.20;99.90;;;;;;4881227;29;20037;-72
2021/09/19 16:57:38;;;;;;;2.65;1.25;;;15.10;99.90;;;;;;4879656;29;20025;-71
2021/09/19 17:00:09;;;;;;;3.70;1.42;;;15.10;99.90;;;;;;4879141;29;20033;-71
2021/09/19 17:02:35;;;;;;;2.83;1.38;;;15.10;99.90;;;;;;4879888;29;20029;-70
2021/09/19 17:05:00;;;;;;;3.58;1.42;;;15.00;99.90;;;;;;4880340;29;20821;-71
2021/09/19 17:07:28;;;;;;;3.03;1.45;;;14.90;99.90;;;;;;4884575;29;20036;-71
2021/09/19 17:09:55;;;;;;;1.90;1.13;;;14.90;99.90;;;;;;4884020;29;20041;-71
2021/09/19 17:12:21;;;;;;;2.55;1.25;;;14.80;99.90;;;;;;4884160;29;20026;-71
2021/09/19 17:14:51;;;;;;;3.28;1.25;;;14.80;99.90;;;;;;4882647;29;20066;-71
2021/09/19 17:17:17;;;;;;;2.95;1.27;;;14.70;99.90;;;;;;4883486;29;20058;-69
2021/09/19 17:19:42;;;;;;;1.85;1.17;;;14.70;99.90;;;;;;4881985;29;20025;-70
2021/09/19 17:22:08;;;;;;;5.85;1.65;;;14.60;99.90;;;;;;4884266;29;20021;-71
2021/09/19 17:24:34;;;;;;;3.45;1.35;;;14.50;99.90;;;;;;4886669;29;20108;-71
2021/09/19 17:27:01;;;;;;;3.80;1.52;;;14.40;99.90;;;;;;4872938;29;20409;-70
2021/09/19 17:29:27;;;;;;;2.95;1.33;;;14.40;99.90;;;;;;4875322;29;20065;-70
2021/09/19 17:31:52;;;;;;;6.80;1.48;;;14.30;99.90;;;;;;4874578;29;20034;-71
2021/09/19 17:34:18;;;;;;;3.05;1.25;;;14.20;99.90;;;;;;4874773;29;20033;-70
2021/09/19 17:36:44;;;;;;;3.78;1.50;;;14.20;99.90;;;;;;4873969;29;20055;-70
2021/09/19 17:39:11;;;;;;;3.88;1.40;;;14.10;99.90;;;;;;4874435;29;20367;-70
2021/09/19 17:41:37;;;;;;;7.07;1.45;;;14.10;99.90;;;;;;4874305;29;20045;-70
2021/09/19 17:44:03;;;;;;;3.17;1.02;;;14.10;99.90;;;;;;4873632;29;20522;-70
2021/09/19 17:46:29;;;;;;;11.18;1.67;;;14.00;99.90;;;;;;4874231;29;20116;-70
2021/09/19 17:48:54;;;;;;;3.08;1.17;;;14.00;99.90;;;;;;4874377;29;20036;-72
2021/09/19 17:51:20;;;;;;;2.33;1.20;;;14.00;99.90;;;;;;4873860;29;20033;-72
2021/09/19 17:53:45;;;;;;;2.22;1.35;;;13.90;99.90;;;;;;4874363;29;20482;-71
2021/09/19 17:56:11;;;;;;;3.58;1.70;;;13.90;99.90;;;;;;4872994;29;20033;-70
2021/09/19 17:58:37;;;;;;;2.42;1.30;;;14.00;99.90;;;;;;4886560;29;20038;-71
2021/09/19 18:01:02;;;;;;;2.22;1.20;;;13.80;99.90;;;;;;4883339;29;20060;-70
2021/09/19 18:03:31;;;;;;;5.57;1.35;;;13.90;99.90;;;;;;4883030;29;20064;-71
2021/09/19 18:05:57;;;;;;;6.93;1.60;;;13.90;99.90;;;;;;4889251;29;20041;-71
2021/09/19 18:08:23;;;;;;;3.17;1.58;;;13.90;99.90;;;;;;4883073;29;20066;-70
2021/09/19 18:10:49;;;;;;;3.85;1.30;;;13.90;99.90;;;;;;4873459;29;20101;-71
2021/09/19 18:13:15;;;;;;;2.35;1.38;;;13.90;99.90;;;;;;4875136;29;20606;-70
2021/09/19 18:15:41;;;;;;;4.40;1.10;;;13.90;99.90;;;;;;4883767;29;20026;-70
2021/09/19 18:18:07;;;;;;;3.83;1.52;;;13.90;99.90;;;;;;4883215;29;20044;-70
2021/09/19 18:20:33;;;;;;;2.47;1.23;;;13.90;99.90;;;;;;4883721;29;20399;-70
2021/09/19 18:22:59;;;;;;;1.77;1.10;;;13.80;99.90;;;;;;4884149;29;20037;-71
2021/09/19 18:25:26;;;;;;;2.40;1.20;;;13.90;99.90;;;;;;4891911;29;20059;-71
2021/09/19 18:27:52;;;;;;;4.70;1.65;;;13.80;99.90;;;;;;4891209;29;20057;-70
2021/09/19 18:30:19;;;;;;;2.30;1.10;;;13.80;99.90;;;;;;4891466;29;20072;-71
2021/09/19 18:32:50;;;;;;;2.50;1.63;;;13.80;99.90;;;;;;4874441;29;20454;-70
2021/09/19 18:35:17;;;;;;;3.90;1.77;;;13.80;99.90;;;;;;4881277;29;20057;-70
2021/09/19 18:37:42;;;;;;;3.03;1.50;;;13.80;99.90;;;;;;4876973;29;20471;-70
2021/09/19 18:40:09;;;;;;;4.38;1.50;;;13.80;99.90;;;;;;4872460;29;20069;-70
2021/09/19 18:42:35;;;;;;;2.85;1.40;;;13.80;99.90;;;;;;4873198;29;20037;-69
2021/09/19 18:45:01;;;;;;;3.45;1.50;;;13.80;99.90;;;;;;4878940;29;20057;-70
2021/09/19 18:47:28;;;;;;;4.07;1.40;;;13.80;99.90;;;;;;4883039;29;20065;-70
2021/09/19 18:49:53;;;;;;;2.10;1.40;;;13.80;99.90;;;;;;4874882;29;20089;-71